sensor_id;sensor_type;location;lat;lon;timestamp;P1;durP1;ratioP1;P2;durP2;ratioP2
19589;SDS011;12231;42.782;23.388;2022-11-15T00:01:32;106.00;;;50.73;;
19589;SDS011;12231;42.782;23.388;2022-11-15T00:03:57;107.70;;;49.50;;
19589;SDS011;12231;42.782;23.388;2022-11-15T00:06:23;96.27;;;46.63;;
19589;SDS011;12231;42.782;23.388;2022-11-15T00:08:48;92.70;;;45.23;;
19589;SDS011;12231;42.782;23.388;2022-11-15T00:11:14;81.53;;;39.37;;
19589;SDS011;12231;42.782;23.388;2022-11-15T00:13:39;78.63;;;40.03;;
19589;SDS011;12231;42.782;23.388;2022-11-15T00:16:05;52.97;;;26.90;;
19589;SDS011;12231;42.782;23.388;2022-11-15T00:18:30;49.70;;;26.00;;
19589;SDS011;12231;42.782;23.388;2022-11-15T00:20:56;50.67;;;27.13;;
19589;SDS011;12231;42.782;23.388;2022-11-15T00:23:28;69.70;;;33.67;;
19589;SDS011;12231;42.782;23.388;2022-11-15T00:25:57;90.23;;;35.63;;
19589;SDS011;12231;42.782;23.388;2022-11-15T00:28:23;88.27;;;37.73;;
19589;SDS011;12231;42.782;23.388;2022-11-15T00:30:49;95.17;;;38.27;;
19589;SDS011;12231;42.782;23.388;2022-11-15T00:33:15;89.27;;;39.17;;
19589;SDS011;12231;42.782;23.388;2022-11-15T00:35:40;85.97;;;36.57;;
19589;SDS011;12231;42.782;23.388;2022-11-15T00:38:06;92.50;;;37.07;;
19589;SDS011;12231;42.782;23.388;2022-11-15T00:40:31;90.23;;;40.73;;
19589;SDS011;12231;42.782;23.388;2022-11-15T00:42:57;86.10;;;39.13;;
19589;SDS011;12231;42.782;23.388;2022-11-15T00:45:23;113.57;;;47.17;;
19589;SDS011;12231;42.782;23.388;2022-11-15T00:47:49;104.50;;;42.83;;
19589;SDS011;12231;42.782;23.388;2022-11-15T00:50:14;92.37;;;38.17;;
19589;SDS011;12231;42.782;23.388;2022-11-15T00:52:40;97.80;;;39.50;;
19589;SDS011;12231;42.782;23.388;2022-11-15T00:55:06;92.73;;;40.37;;
19589;SDS011;12231;42.782;23.388;2022-11-15T00:57:34;99.87;;;45.20;;
19589;SDS011;12231;42.782;23.388;2022-11-15T00:59:59;126.43;;;55.83;;
19589;SDS011;12231;42.782;23.388;2022-11-15T01:02:24;116.50;;;53.73;;
19589;SDS011;12231;42.782;23.388;2022-11-15T01:04:50;96.83;;;48.43;;
19589;SDS011;12231;42.782;23.388;2022-11-15T01:07:15;88.53;;;43.50;;
19589;SDS011;12231;42.782;23.388;2022-11-15T01:09:40;85.83;;;40.97;;
19589;SDS011;12231;42.782;23.388;2022-11-15T01:12:06;80.33;;;38.93;;
19589;SDS011;12231;42.782;23.388;2022-11-15T01:14:31;76.07;;;37.23;;
19589;SDS011;12231;42.782;23.388;2022-11-15T01:16:57;81.20;;;36.03;;
19589;SDS011;12231;42.782;23.388;2022-11-15T01:19:22;91.30;;;36.53;;
19589;SDS011;12231;42.782;23.388;2022-11-15T01:21:51;96.47;;;36.83;;
19589;SDS011;12231;42.782;23.388;2022-11-15T01:24:16;88.30;;;37.33;;
19589;SDS011;12231;42.782;23.388;2022-11-15T01:26:42;87.50;;;41.33;;
19589;SDS011;12231;42.782;23.388;2022-11-15T01:29:07;99.93;;;41.80;;
19589;SDS011;12231;42.782;23.388;2022-11-15T01:31:32;111.17;;;45.67;;
19589;SDS011;12231;42.782;23.388;2022-11-15T01:33:58;105.30;;;42.70;;
19589;SDS011;12231;42.782;23.388;2022-11-15T01:36:23;93.57;;;43.17;;
19589;SDS011;12231;42.782;23.388;2022-11-15T01:38:52;92.27;;;42.73;;
19589;SDS011;12231;42.782;23.388;2022-11-15T01:41:20;106.63;;;43.37;;
19589;SDS011;12231;42.782;23.388;2022-11-15T01:43:49;109.10;;;44.40;;
19589;SDS011;12231;42.782;23.388;2022-11-15T01:46:39;98.23;;;40.47;;
19589;SDS011;12231;42.782;23.388;2022-11-15T01:49:05;99.37;;;40.33;;
19589;SDS011;12231;42.782;23.388;2022-11-15T01:51:38;91.43;;;38.97;;
19589;SDS011;12231;42.782;23.388;2022-11-15T01:54:05;88.30;;;39.10;;
19589;SDS011;12231;42.782;23.388;2022-11-15T01:56:40;97.00;;;40.40;;
19589;SDS011;12231;42.782;23.388;2022-11-15T01:59:10;93.73;;;38.13;;
19589;SDS011;12231;42.782;23.388;2022-11-15T02:01:36;93.20;;;40.00;;
19589;SDS011;12231;42.782;23.388;2022-11-15T02:04:10;95.73;;;37.73;;
19589;SDS011;12231;42.782;23.388;2022-11-15T02:06:39;80.57;;;37.17;;
19589;SDS011;12231;42.782;23.388;2022-11-15T02:09:06;77.30;;;35.83;;
19589;SDS011;12231;42.782;23.388;2022-11-15T02:11:31;74.40;;;32.23;;
19589;SDS011;12231;42.782;23.388;2022-11-15T02:13:57;75.27;;;34.00;;
19589;SDS011;12231;42.782;23.388;2022-11-15T02:16:27;84.00;;;34.63;;
19589;SDS011;12231;42.782;23.388;2022-11-15T02:19:18;83.73;;;36.60;;
19589;SDS011;12231;42.782;23.388;2022-11-15T02:41:30;66.23;;;31.33;;
19589;SDS011;12231;42.782;23.388;2022-11-15T02:44:12;49.03;;;24.90;;
19589;SDS011;12231;42.782;23.388;2022-11-15T02:49:38;41.93;;;23.77;;
19589;SDS011;12231;42.782;23.388;2022-11-15T02:52:06;41.67;;;23.57;;
19589;SDS011;12231;42.782;23.388;2022-11-15T02:54:32;46.97;;;23.43;;
19589;SDS011;12231;42.782;23.388;2022-11-15T02:57:11;70.47;;;31.03;;
19589;SDS011;12231;42.782;23.388;2022-11-15T02:59:43;74.10;;;32.23;;
19589;SDS011;12231;42.782;23.388;2022-11-15T03:02:24;71.07;;;32.37;;
19589;SDS011;12231;42.782;23.388;2022-11-15T03:07:39;94.83;;;42.47;;
19589;SDS011;12231;42.782;23.388;2022-11-15T03:10:21;74.67;;;36.47;;
19589;SDS011;12231;42.782;23.388;2022-11-15T03:13:06;77.33;;;34.40;;
19589;SDS011;12231;42.782;23.388;2022-11-15T03:15:44;84.63;;;35.30;;
19589;SDS011;12231;42.782;23.388;2022-11-15T03:18:41;95.47;;;37.27;;
19589;SDS011;12231;42.782;23.388;2022-11-15T03:21:12;72.20;;;34.90;;
19589;SDS011;12231;42.782;23.388;2022-11-15T03:23:40;72.37;;;35.07;;
19589;SDS011;12231;42.782;23.388;2022-11-15T03:26:09;65.40;;;31.77;;
19589;SDS011;12231;42.782;23.388;2022-11-15T03:29:01;157.53;;;70.67;;
19589;SDS011;12231;42.782;23.388;2022-11-15T03:31:29;68.33;;;33.90;;
19589;SDS011;12231;42.782;23.388;2022-11-15T03:34:20;71.97;;;32.77;;
19589;SDS011;12231;42.782;23.388;2022-11-15T03:36:48;63.40;;;32.60;;
19589;SDS011;12231;42.782;23.388;2022-11-15T03:39:16;64.63;;;29.60;;
19589;SDS011;12231;42.782;23.388;2022-11-15T03:41:49;53.73;;;29.00;;
19589;SDS011;12231;42.782;23.388;2022-11-15T03:50:01;69.70;;;32.17;;
19589;SDS011;12231;42.782;23.388;2022-11-15T03:52:32;71.63;;;32.23;;
19589;SDS011;12231;42.782;23.388;2022-11-15T03:54:59;91.13;;;35.00;;
19589;SDS011;12231;42.782;23.388;2022-11-15T03:57:26;78.20;;;34.73;;
19589;SDS011;12231;42.782;23.388;2022-11-15T03:59:52;82.97;;;33.83;;
19589;SDS011;12231;42.782;23.388;2022-11-15T04:02:18;88.73;;;37.00;;
19589;SDS011;12231;42.782;23.388;2022-11-15T04:04:43;85.57;;;35.40;;
19589;SDS011;12231;42.782;23.388;2022-11-15T04:07:09;100.60;;;38.33;;
19589;SDS011;12231;42.782;23.388;2022-11-15T04:09:34;119.10;;;46.47;;
19589;SDS011;12231;42.782;23.388;2022-11-15T04:12:19;91.73;;;38.30;;
19589;SDS011;12231;42.782;23.388;2022-11-15T04:14:55;91.83;;;39.13;;
19589;SDS011;12231;42.782;23.388;2022-11-15T04:20:09;84.57;;;39.90;;
19589;SDS011;12231;42.782;23.388;2022-11-15T04:22:59;96.63;;;38.87;;
19589;SDS011;12231;42.782;23.388;2022-11-15T04:25:44;82.77;;;36.80;;
19589;SDS011;12231;42.782;23.388;2022-11-15T04:28:11;89.10;;;40.50;;
19589;SDS011;12231;42.782;23.388;2022-11-15T04:30:37;93.93;;;37.00;;
19589;SDS011;12231;42.782;23.388;2022-11-15T04:33:03;84.90;;;37.63;;
19589;SDS011;12231;42.782;23.388;2022-11-15T04:35:29;105.50;;;40.30;;
19589;SDS011;12231;42.782;23.388;2022-11-15T04:37:54;102.07;;;40.63;;
19589;SDS011;12231;42.782;23.388;2022-11-15T04:40:21;107.93;;;41.03;;
19589;SDS011;12231;42.782;23.388;2022-11-15T04:42:46;107.53;;;40.70;;
19589;SDS011;12231;42.782;23.388;2022-11-15T04:45:11;97.93;;;40.60;;
19589;SDS011;12231;42.782;23.388;2022-11-15T04:47:37;94.07;;;38.90;;
19589;SDS011;12231;42.782;23.388;2022-11-15T04:50:02;97.20;;;38.33;;
19589;SDS011;12231;42.782;23.388;2022-11-15T04:52:28;88.27;;;35.67;;
19589;SDS011;12231;42.782;23.388;2022-11-15T04:54:53;85.97;;;35.13;;
19589;SDS011;12231;42.782;23.388;2022-11-15T04:57:19;80.70;;;35.17;;
19589;SDS011;12231;42.782;23.388;2022-11-15T04:59:44;77.30;;;33.00;;
19589;SDS011;12231;42.782;23.388;2022-11-15T05:02:10;84.00;;;36.43;;
19589;SDS011;12231;42.782;23.388;2022-11-15T05:04:35;84.53;;;33.80;;
19589;SDS011;12231;42.782;23.388;2022-11-15T05:07:00;79.90;;;34.00;;
19589;SDS011;12231;42.782;23.388;2022-11-15T05:09:27;87.27;;;33.83;;
19589;SDS011;12231;42.782;23.388;2022-11-15T05:11:52;83.83;;;34.77;;
19589;SDS011;12231;42.782;23.388;2022-11-15T05:14:17;80.93;;;34.87;;
19589;SDS011;12231;42.782;23.388;2022-11-15T05:16:43;80.50;;;36.10;;
19589;SDS011;12231;42.782;23.388;2022-11-15T05:19:08;76.97;;;35.07;;
19589;SDS011;12231;42.782;23.388;2022-11-15T05:21:34;83.60;;;33.87;;
19589;SDS011;12231;42.782;23.388;2022-11-15T05:24:00;69.47;;;31.37;;
19589;SDS011;12231;42.782;23.388;2022-11-15T05:26:26;68.83;;;31.53;;
19589;SDS011;12231;42.782;23.388;2022-11-15T05:28:56;73.30;;;31.50;;
19589;SDS011;12231;42.782;23.388;2022-11-15T05:31:22;72.03;;;30.53;;
19589;SDS011;12231;42.782;23.388;2022-11-15T05:33:49;69.33;;;30.63;;
19589;SDS011;12231;42.782;23.388;2022-11-15T05:36:34;72.40;;;32.33;;
19589;SDS011;12231;42.782;23.388;2022-11-15T05:39:03;78.47;;;32.13;;
19589;SDS011;12231;42.782;23.388;2022-11-15T05:41:30;78.80;;;32.53;;
19589;SDS011;12231;42.782;23.388;2022-11-15T05:44:01;78.57;;;33.57;;
19589;SDS011;12231;42.782;23.388;2022-11-15T05:46:31;89.43;;;33.87;;
19589;SDS011;12231;42.782;23.388;2022-11-15T05:48:58;73.70;;;32.33;;
19589;SDS011;12231;42.782;23.388;2022-11-15T05:51:24;74.30;;;32.87;;
19589;SDS011;12231;42.782;23.388;2022-11-15T05:53:52;69.77;;;33.17;;
19589;SDS011;12231;42.782;23.388;2022-11-15T05:56:20;65.00;;;33.03;;
19589;SDS011;12231;42.782;23.388;2022-11-15T05:58:45;89.97;;;34.63;;
19589;SDS011;12231;42.782;23.388;2022-11-15T06:01:11;82.67;;;34.60;;
19589;SDS011;12231;42.782;23.388;2022-11-15T06:03:36;66.63;;;31.97;;
19589;SDS011;12231;42.782;23.388;2022-11-15T06:06:01;70.70;;;33.17;;
19589;SDS011;12231;42.782;23.388;2022-11-15T06:08:27;77.27;;;35.97;;
19589;SDS011;12231;42.782;23.388;2022-11-15T06:10:52;76.27;;;35.30;;
19589;SDS011;12231;42.782;23.388;2022-11-15T06:13:18;79.77;;;35.40;;
19589;SDS011;12231;42.782;23.388;2022-11-15T06:15:43;82.13;;;34.23;;
19589;SDS011;12231;42.782;23.388;2022-11-15T06:18:08;85.50;;;37.57;;
19589;SDS011;12231;42.782;23.388;2022-11-15T06:20:34;76.33;;;36.07;;
19589;SDS011;12231;42.782;23.388;2022-11-15T06:23:02;88.20;;;35.17;;
19589;SDS011;12231;42.782;23.388;2022-11-15T06:25:28;73.83;;;35.10;;
19589;SDS011;12231;42.782;23.388;2022-11-15T06:27:55;80.43;;;33.83;;
19589;SDS011;12231;42.782;23.388;2022-11-15T06:30:22;69.47;;;31.07;;
19589;SDS011;12231;42.782;23.388;2022-11-15T06:32:48;73.07;;;30.47;;
19589;SDS011;12231;42.782;23.388;2022-11-15T06:35:14;81.27;;;32.90;;
19589;SDS011;12231;42.782;23.388;2022-11-15T06:37:40;93.53;;;39.67;;
19589;SDS011;12231;42.782;23.388;2022-11-15T06:40:07;77.03;;;35.83;;
19589;SDS011;12231;42.782;23.388;2022-11-15T06:42:33;83.53;;;33.63;;
19589;SDS011;12231;42.782;23.388;2022-11-15T06:44:58;75.70;;;32.90;;
19589;SDS011;12231;42.782;23.388;2022-11-15T06:47:24;75.30;;;32.87;;
19589;SDS011;12231;42.782;23.388;2022-11-15T06:49:50;67.70;;;30.73;;
19589;SDS011;12231;42.782;23.388;2022-11-15T06:52:15;69.70;;;31.63;;
19589;SDS011;12231;42.782;23.388;2022-11-15T06:54:43;70.53;;;31.03;;
19589;SDS011;12231;42.782;23.388;2022-11-15T06:57:10;73.63;;;29.43;;
19589;SDS011;12231;42.782;23.388;2022-11-15T06:59:35;67.87;;;27.43;;
19589;SDS011;12231;42.782;23.388;2022-11-15T07:02:01;57.07;;;27.27;;
19589;SDS011;12231;42.782;23.388;2022-11-15T07:04:26;55.83;;;27.13;;
19589;SDS011;12231;42.782;23.388;2022-11-15T07:06:51;54.27;;;26.43;;
19589;SDS011;12231;42.782;23.388;2022-11-15T07:09:17;49.73;;;24.57;;
19589;SDS011;12231;42.782;23.388;2022-11-15T07:11:42;42.70;;;21.83;;
19589;SDS011;12231;42.782;23.388;2022-11-15T07:14:07;44.47;;;25.37;;
19589;SDS011;12231;42.782;23.388;2022-11-15T07:16:33;39.80;;;20.10;;
19589;SDS011;12231;42.782;23.388;2022-11-15T07:18:58;58.37;;;25.57;;
19589;SDS011;12231;42.782;23.388;2022-11-15T07:21:24;52.57;;;24.30;;
19589;SDS011;12231;42.782;23.388;2022-11-15T07:23:49;43.03;;;23.20;;
19589;SDS011;12231;42.782;23.388;2022-11-15T07:26:14;45.40;;;21.97;;
19589;SDS011;12231;42.782;23.388;2022-11-15T07:28:40;45.83;;;21.40;;
19589;SDS011;12231;42.782;23.388;2022-11-15T07:31:06;41.30;;;20.77;;
19589;SDS011;12231;42.782;23.388;2022-11-15T07:33:33;43.17;;;19.73;;
19589;SDS011;12231;42.782;23.388;2022-11-15T07:35:59;46.80;;;20.40;;
19589;SDS011;12231;42.782;23.388;2022-11-15T07:38:26;43.53;;;20.47;;
19589;SDS011;12231;42.782;23.388;2022-11-15T07:40:56;41.50;;;19.73;;
19589;SDS011;12231;42.782;23.388;2022-11-15T07:43:23;44.83;;;22.40;;
19589;SDS011;12231;42.782;23.388;2022-11-15T07:45:48;43.13;;;19.70;;
19589;SDS011;12231;42.782;23.388;2022-11-15T07:48:14;51.73;;;20.53;;
19589;SDS011;12231;42.782;23.388;2022-11-15T07:50:42;52.33;;;23.30;;
19589;SDS011;12231;42.782;23.388;2022-11-15T07:53:08;42.10;;;18.50;;
19589;SDS011;12231;42.782;23.388;2022-11-15T07:55:35;41.20;;;21.23;;
19589;SDS011;12231;42.782;23.388;2022-11-15T07:58:04;46.83;;;23.07;;
19589;SDS011;12231;42.782;23.388;2022-11-15T08:00:32;50.33;;;25.13;;
19589;SDS011;12231;42.782;23.388;2022-11-15T08:05:30;34.80;;;17.47;;
19589;SDS011;12231;42.782;23.388;2022-11-15T08:07:56;22.30;;;11.57;;
19589;SDS011;12231;42.782;23.388;2022-11-15T08:10:22;21.93;;;11.50;;
19589;SDS011;12231;42.782;23.388;2022-11-15T08:12:47;23.67;;;12.73;;
19589;SDS011;12231;42.782;23.388;2022-11-15T08:15:13;30.87;;;14.10;;
19589;SDS011;12231;42.782;23.388;2022-11-15T08:17:38;28.97;;;13.57;;
19589;SDS011;12231;42.782;23.388;2022-11-15T08:20:04;25.50;;;14.70;;
19589;SDS011;12231;42.782;23.388;2022-11-15T08:22:29;36.30;;;15.40;;
19589;SDS011;12231;42.782;23.388;2022-11-15T08:24:55;32.20;;;15.30;;
19589;SDS011;12231;42.782;23.388;2022-11-15T08:27:20;58.30;;;24.43;;
19589;SDS011;12231;42.782;23.388;2022-11-15T08:29:47;39.77;;;17.93;;
19589;SDS011;12231;42.782;23.388;2022-11-15T08:32:13;30.73;;;14.50;;
19589;SDS011;12231;42.782;23.388;2022-11-15T08:34:39;38.13;;;16.70;;
19589;SDS011;12231;42.782;23.388;2022-11-15T08:37:04;46.97;;;18.63;;
19589;SDS011;12231;42.782;23.388;2022-11-15T08:39:30;40.60;;;19.20;;
19589;SDS011;12231;42.782;23.388;2022-11-15T08:41:55;38.00;;;18.53;;
19589;SDS011;12231;42.782;23.388;2022-11-15T08:44:21;39.27;;;18.33;;
19589;SDS011;12231;42.782;23.388;2022-11-15T08:46:46;38.23;;;18.60;;
19589;SDS011;12231;42.782;23.388;2022-11-15T08:49:12;37.30;;;17.33;;
19589;SDS011;12231;42.782;23.388;2022-11-15T08:51:37;35.63;;;16.83;;
19589;SDS011;12231;42.782;23.388;2022-11-15T08:54:03;35.67;;;17.27;;
19589;SDS011;12231;42.782;23.388;2022-11-15T08:56:28;38.27;;;19.23;;
19589;SDS011;12231;42.782;23.388;2022-11-15T08:58:54;38.60;;;17.10;;
19589;SDS011;12231;42.782;23.388;2022-11-15T09:01:20;31.93;;;15.73;;
19589;SDS011;12231;42.782;23.388;2022-11-15T09:03:46;36.67;;;18.63;;
19589;SDS011;12231;42.782;23.388;2022-11-15T09:06:11;37.77;;;18.83;;
19589;SDS011;12231;42.782;23.388;2022-11-15T09:08:37;32.17;;;14.67;;
19589;SDS011;12231;42.782;23.388;2022-11-15T09:11:07;25.43;;;14.90;;
19589;SDS011;12231;42.782;23.388;2022-11-15T09:13:35;26.47;;;13.00;;
19589;SDS011;12231;42.782;23.388;2022-11-15T09:16:04;31.10;;;15.20;;
19589;SDS011;12231;42.782;23.388;2022-11-15T09:18:31;25.93;;;13.67;;
19589;SDS011;12231;42.782;23.388;2022-11-15T09:20:57;27.90;;;14.33;;
19589;SDS011;12231;42.782;23.388;2022-11-15T09:23:23;32.07;;;14.97;;
19589;SDS011;12231;42.782;23.388;2022-11-15T09:25:49;24.60;;;13.47;;
19589;SDS011;12231;42.782;23.388;2022-11-15T09:28:15;27.70;;;15.07;;
19589;SDS011;12231;42.782;23.388;2022-11-15T09:30:40;33.57;;;16.10;;
19589;SDS011;12231;42.782;23.388;2022-11-15T09:33:14;33.37;;;18.03;;
19589;SDS011;12231;42.782;23.388;2022-11-15T09:35:40;36.13;;;17.97;;
19589;SDS011;12231;42.782;23.388;2022-11-15T09:38:05;35.77;;;17.57;;
19589;SDS011;12231;42.782;23.388;2022-11-15T09:40:31;34.50;;;17.60;;
19589;SDS011;12231;42.782;23.388;2022-11-15T09:45:52;38.13;;;19.20;;
19589;SDS011;12231;42.782;23.388;2022-11-15T09:51:08;34.37;;;17.90;;
19589;SDS011;12231;42.782;23.388;2022-11-15T09:56:39;32.00;;;15.97;;
19589;SDS011;12231;42.782;23.388;2022-11-15T09:59:17;33.73;;;18.50;;
19589;SDS011;12231;42.782;23.388;2022-11-15T10:02:00;34.37;;;17.47;;
19589;SDS011;12231;42.782;23.388;2022-11-15T10:04:45;43.20;;;19.77;;
19589;SDS011;12231;42.782;23.388;2022-11-15T10:07:15;41.30;;;18.87;;
19589;SDS011;12231;42.782;23.388;2022-11-15T10:12:47;38.17;;;20.67;;
19589;SDS011;12231;42.782;23.388;2022-11-15T10:15:16;36.63;;;20.27;;
19589;SDS011;12231;42.782;23.388;2022-11-15T10:18:03;34.60;;;18.83;;
19589;SDS011;12231;42.782;23.388;2022-11-15T10:20:49;32.17;;;17.10;;
19589;SDS011;12231;42.782;23.388;2022-11-15T10:23:27;46.38;;;23.00;;
19589;SDS011;12231;42.782;23.388;2022-11-15T10:25:55;37.80;;;18.73;;
19589;SDS011;12231;42.782;23.388;2022-11-15T10:28:27;34.77;;;18.00;;
19589;SDS011;12231;42.782;23.388;2022-11-15T10:30:55;33.77;;;17.67;;
19589;SDS011;12231;42.782;23.388;2022-11-15T10:46:27;36.60;;;17.57;;
19589;SDS011;12231;42.782;23.388;2022-11-15T10:48:52;36.63;;;19.40;;
19589;SDS011;12231;42.782;23.388;2022-11-15T10:51:22;35.53;;;18.93;;
19589;SDS011;12231;42.782;23.388;2022-11-15T10:53:59;38.10;;;16.93;;
19589;SDS011;12231;42.782;23.388;2022-11-15T10:56:26;38.43;;;18.43;;
19589;SDS011;12231;42.782;23.388;2022-11-15T10:58:58;47.50;;;25.03;;
19589;SDS011;12231;42.782;23.388;2022-11-15T11:01:24;33.43;;;17.23;;
19589;SDS011;12231;42.782;23.388;2022-11-15T11:04:04;36.20;;;17.93;;
19589;SDS011;12231;42.782;23.388;2022-11-15T11:06:50;32.90;;;16.67;;
19589;SDS011;12231;42.782;23.388;2022-11-15T11:12:01;33.53;;;17.37;;
19589;SDS011;12231;42.782;23.388;2022-11-15T11:14:29;36.00;;;19.00;;
19589;SDS011;12231;42.782;23.388;2022-11-15T11:19:36;29.63;;;17.30;;
19589;SDS011;12231;42.782;23.388;2022-11-15T11:24:47;38.23;;;19.00;;
19589;SDS011;12231;42.782;23.388;2022-11-15T11:49:25;30.67;;;17.40;;
19589;SDS011;12231;42.782;23.388;2022-11-15T12:02:44;35.23;;;19.90;;
19589;SDS011;12231;42.782;23.388;2022-11-15T12:10:48;38.00;;;18.87;;
19589;SDS011;12231;42.782;23.388;2022-11-15T12:13:20;35.93;;;19.00;;
19589;SDS011;12231;42.782;23.388;2022-11-15T12:18:41;27.33;;;16.23;;
19589;SDS011;12231;42.782;23.388;2022-11-15T12:21:13;34.37;;;18.57;;
19589;SDS011;12231;42.782;23.388;2022-11-15T12:23:52;34.67;;;18.67;;
19589;SDS011;12231;42.782;23.388;2022-11-15T12:26:33;33.83;;;18.97;;
19589;SDS011;12231;42.782;23.388;2022-11-15T12:29:38;33.17;;;17.40;;
19589;SDS011;12231;42.782;23.388;2022-11-15T12:34:50;36.47;;;18.40;;
19589;SDS011;12231;42.782;23.388;2022-11-15T12:42:42;42.63;;;20.50;;
19589;SDS011;12231;42.782;23.388;2022-11-15T12:45:42;37.90;;;19.90;;
19589;SDS011;12231;42.782;23.388;2022-11-15T12:58:27;35.10;;;19.57;;
19589;SDS011;12231;42.782;23.388;2022-11-15T13:01:06;37.67;;;20.83;;
19589;SDS011;12231;42.782;23.388;2022-11-15T13:03:32;37.40;;;20.50;;
19589;SDS011;12231;42.782;23.388;2022-11-15T13:05:59;51.20;;;28.30;;
19589;SDS011;12231;42.782;23.388;2022-11-15T13:17:00;40.97;;;23.00;;
19589;SDS011;12231;42.782;23.388;2022-11-15T13:19:26;41.73;;;22.97;;
19589;SDS011;12231;42.782;23.388;2022-11-15T13:21:51;38.73;;;20.07;;
19589;SDS011;12231;42.782;23.388;2022-11-15T13:24:37;38.97;;;19.87;;
19589;SDS011;12231;42.782;23.388;2022-11-15T13:27:10;31.10;;;18.93;;
19589;SDS011;12231;42.782;23.388;2022-11-15T13:29:42;39.03;;;19.93;;
19589;SDS011;12231;42.782;23.388;2022-11-15T13:32:11;37.33;;;19.00;;
19589;SDS011;12231;42.782;23.388;2022-11-15T13:34:38;32.43;;;19.50;;
19589;SDS011;12231;42.782;23.388;2022-11-15T13:39:45;38.00;;;20.23;;
19589;SDS011;12231;42.782;23.388;2022-11-15T13:42:16;32.30;;;19.07;;
19589;SDS011;12231;42.782;23.388;2022-11-15T13:44:56;42.47;;;21.23;;
19589;SDS011;12231;42.782;23.388;2022-11-15T13:47:25;34.37;;;20.53;;
19589;SDS011;12231;42.782;23.388;2022-11-15T13:49:58;43.73;;;25.80;;
19589;SDS011;12231;42.782;23.388;2022-11-15T13:52:26;52.83;;;31.50;;
19589;SDS011;12231;42.782;23.388;2022-11-15T13:55:04;37.27;;;22.27;;
19589;SDS011;12231;42.782;23.388;2022-11-15T13:57:55;35.73;;;19.27;;
19589;SDS011;12231;42.782;23.388;2022-11-15T14:02:51;32.50;;;18.90;;
19589;SDS011;12231;42.782;23.388;2022-11-15T14:05:19;32.53;;;17.43;;
19589;SDS011;12231;42.782;23.388;2022-11-15T14:07:57;31.23;;;17.40;;
19589;SDS011;12231;42.782;23.388;2022-11-15T14:10:32;30.47;;;17.37;;
19589;SDS011;12231;42.782;23.388;2022-11-15T14:13:02;30.13;;;16.70;;
19589;SDS011;12231;42.782;23.388;2022-11-15T14:18:01;31.13;;;17.83;;
19589;SDS011;12231;42.782;23.388;2022-11-15T14:20:34;29.90;;;17.73;;
19589;SDS011;12231;42.782;23.388;2022-11-15T14:23:02;31.77;;;17.43;;
19589;SDS011;12231;42.782;23.388;2022-11-15T14:25:29;30.13;;;17.47;;
19589;SDS011;12231;42.782;23.388;2022-11-15T14:28:14;34.07;;;19.53;;
19589;SDS011;12231;42.782;23.388;2022-11-15T14:30:42;37.37;;;19.80;;
19589;SDS011;12231;42.782;23.388;2022-11-15T14:33:18;35.53;;;19.73;;
19589;SDS011;12231;42.782;23.388;2022-11-15T14:35:44;38.73;;;20.70;;
19589;SDS011;12231;42.782;23.388;2022-11-15T14:38:09;43.67;;;22.40;;
19589;SDS011;12231;42.782;23.388;2022-11-15T14:40:35;40.90;;;21.40;;
19589;SDS011;12231;42.782;23.388;2022-11-15T14:43:00;37.23;;;20.63;;
19589;SDS011;12231;42.782;23.388;2022-11-15T14:45:26;42.67;;;20.23;;
19589;SDS011;12231;42.782;23.388;2022-11-15T14:47:52;40.07;;;20.73;;
19589;SDS011;12231;42.782;23.388;2022-11-15T14:50:18;44.77;;;22.33;;
19589;SDS011;12231;42.782;23.388;2022-11-15T14:52:45;43.60;;;21.80;;
19589;SDS011;12231;42.782;23.388;2022-11-15T14:57:48;41.23;;;21.87;;
19589;SDS011;12231;42.782;23.388;2022-11-15T15:00:14;48.80;;;24.00;;
19589;SDS011;12231;42.782;23.388;2022-11-15T15:02:41;51.63;;;25.20;;
19589;SDS011;12231;42.782;23.388;2022-11-15T15:05:22;51.43;;;26.03;;
19589;SDS011;12231;42.782;23.388;2022-11-15T15:07:49;51.33;;;28.57;;
19589;SDS011;12231;42.782;23.388;2022-11-15T15:10:15;65.63;;;32.73;;
19589;SDS011;12231;42.782;23.388;2022-11-15T15:12:41;87.37;;;41.23;;
19589;SDS011;12231;42.782;23.388;2022-11-15T15:15:40;177.40;;;71.27;;
19589;SDS011;12231;42.782;23.388;2022-11-15T15:18:02;131.60;;;58.13;;
19589;SDS011;12231;42.782;23.388;2022-11-15T15:20:29;107.23;;;48.13;;
19589;SDS011;12231;42.782;23.388;2022-11-15T15:22:58;96.30;;;43.67;;
19589;SDS011;12231;42.782;23.388;2022-11-15T15:25:33;98.83;;;44.17;;
19589;SDS011;12231;42.782;23.388;2022-11-15T15:28:00;109.00;;;46.53;;
19589;SDS011;12231;42.782;23.388;2022-11-15T15:30:27;104.27;;;49.27;;
19589;SDS011;12231;42.782;23.388;2022-11-15T15:32:53;120.03;;;50.10;;
19589;SDS011;12231;42.782;23.388;2022-11-15T15:35:19;124.50;;;54.13;;
19589;SDS011;12231;42.782;23.388;2022-11-15T15:37:45;132.20;;;52.97;;
19589;SDS011;12231;42.782;23.388;2022-11-15T15:40:16;118.13;;;50.93;;
19589;SDS011;12231;42.782;23.388;2022-11-15T15:42:44;92.70;;;41.80;;
19589;SDS011;12231;42.782;23.388;2022-11-15T15:45:10;108.53;;;45.37;;
19589;SDS011;12231;42.782;23.388;2022-11-15T15:47:36;85.73;;;40.80;;
19589;SDS011;12231;42.782;23.388;2022-11-15T15:50:02;85.73;;;38.50;;
19589;SDS011;12231;42.782;23.388;2022-11-15T15:52:29;67.77;;;34.57;;
19589;SDS011;12231;42.782;23.388;2022-11-15T15:54:54;63.83;;;30.47;;
19589;SDS011;12231;42.782;23.388;2022-11-15T15:57:20;58.70;;;30.63;;
19589;SDS011;12231;42.782;23.388;2022-11-15T15:59:45;59.57;;;28.47;;
19589;SDS011;12231;42.782;23.388;2022-11-15T16:02:13;58.67;;;29.00;;
19589;SDS011;12231;42.782;23.388;2022-11-15T16:04:39;53.63;;;28.13;;
19589;SDS011;12231;42.782;23.388;2022-11-15T16:07:05;57.27;;;28.83;;
19589;SDS011;12231;42.782;23.388;2022-11-15T16:09:37;55.57;;;30.67;;
19589;SDS011;12231;42.782;23.388;2022-11-15T16:12:21;60.47;;;30.97;;
19589;SDS011;12231;42.782;23.388;2022-11-15T16:14:47;55.77;;;30.30;;
19589;SDS011;12231;42.782;23.388;2022-11-15T16:17:16;62.53;;;30.57;;
19589;SDS011;12231;42.782;23.388;2022-11-15T16:19:44;69.87;;;30.70;;
19589;SDS011;12231;42.782;23.388;2022-11-15T16:22:10;66.87;;;34.63;;
19589;SDS011;12231;42.782;23.388;2022-11-15T16:24:35;68.80;;;34.47;;
19589;SDS011;12231;42.782;23.388;2022-11-15T16:27:01;64.13;;;32.47;;
19589;SDS011;12231;42.782;23.388;2022-11-15T16:29:27;63.60;;;32.30;;
19589;SDS011;12231;42.782;23.388;2022-11-15T16:31:53;64.53;;;32.47;;
19589;SDS011;12231;42.782;23.388;2022-11-15T16:34:18;62.10;;;33.37;;
19589;SDS011;12231;42.782;23.388;2022-11-15T16:36:44;85.17;;;46.27;;
19589;SDS011;12231;42.782;23.388;2022-11-15T16:39:12;102.40;;;49.37;;
19589;SDS011;12231;42.782;23.388;2022-11-15T16:41:39;112.10;;;50.67;;
19589;SDS011;12231;42.782;23.388;2022-11-15T16:44:05;97.93;;;46.67;;
19589;SDS011;12231;42.782;23.388;2022-11-15T16:46:30;115.80;;;50.90;;